sensor_id;sensor_type;location;lat;lon;timestamp;P1;durP1;ratioP1;P2;durP2;ratioP2
15281;SDS011;7742;44.320;19.820;2023-05-16T00:01:53;52.03;;;36.13;;
15281;SDS011;7742;44.320;19.820;2023-05-16T00:04:20;49.10;;;36.97;;
15281;SDS011;7742;44.320;19.820;2023-05-16T00:06:47;40.73;;;36.73;;
15281;SDS011;7742;44.320;19.820;2023-05-16T00:09:14;42.13;;;37.77;;
15281;SDS011;7742;44.320;19.820;2023-05-16T00:11:46;42.93;;;38.73;;
15281;SDS011;7742;44.320;19.820;2023-05-16T00:14:14;44.07;;;37.10;;
15281;SDS011;7742;44.320;19.820;2023-05-16T00:16:41;43.13;;;38.47;;
15281;SDS011;7742;44.320;19.820;2023-05-16T00:19:09;40.73;;;36.63;;
15281;SDS011;7742;44.320;19.820;2023-05-16T00:21:36;36.83;;;33.23;;
15281;SDS011;7742;44.320;19.820;2023-05-16T00:24:03;38.00;;;34.30;;
15281;SDS011;7742;44.320;19.820;2023-05-16T00:26:31;38.13;;;33.87;;
15281;SDS011;7742;44.320;19.820;2023-05-16T00:29:08;38.23;;;34.40;;
15281;SDS011;7742;44.320;19.820;2023-05-16T00:31:34;38.03;;;34.23;;
15281;SDS011;7742;44.320;19.820;2023-05-16T00:34:02;36.63;;;33.03;;
15281;SDS011;7742;44.320;19.820;2023-05-16T00:42:38;32.80;;;29.60;;
15281;SDS011;7742;44.320;19.820;2023-05-16T00:45:06;36.60;;;32.10;;
15281;SDS011;7742;44.320;19.820;2023-05-16T00:47:33;34.90;;;31.20;;
15281;SDS011;7742;44.320;19.820;2023-05-16T00:50:00;35.80;;;32.27;;
15281;SDS011;7742;44.320;19.820;2023-05-16T00:52:28;34.77;;;31.10;;
15281;SDS011;7742;44.320;19.820;2023-05-16T00:54:55;38.03;;;34.13;;
15281;SDS011;7742;44.320;19.820;2023-05-16T00:57:22;36.47;;;32.97;;
15281;SDS011;7742;44.320;19.820;2023-05-16T00:59:50;36.57;;;32.40;;
15281;SDS011;7742;44.320;19.820;2023-05-16T01:02:18;48.57;;;31.67;;
15281;SDS011;7742;44.320;19.820;2023-05-16T01:04:45;36.63;;;32.67;;
15281;SDS011;7742;44.320;19.820;2023-05-16T01:07:12;34.90;;;31.83;;
15281;SDS011;7742;44.320;19.820;2023-05-16T01:09:39;97.10;;;34.03;;
15281;SDS011;7742;44.320;19.820;2023-05-16T01:12:08;34.47;;;30.77;;
15281;SDS011;7742;44.320;19.820;2023-05-16T01:14:38;34.17;;;30.50;;
15281;SDS011;7742;44.320;19.820;2023-05-16T01:17:10;67.17;;;34.77;;
15281;SDS011;7742;44.320;19.820;2023-05-16T01:19:45;83.17;;;33.67;;
15281;SDS011;7742;44.320;19.820;2023-05-16T01:22:15;42.93;;;32.87;;
15281;SDS011;7742;44.320;19.820;2023-05-16T01:24:47;104.50;;;34.33;;
15281;SDS011;7742;44.320;19.820;2023-05-16T01:27:21;124.20;;;34.53;;
15281;SDS011;7742;44.320;19.820;2023-05-16T01:29:50;101.10;;;35.13;;
15281;SDS011;7742;44.320;19.820;2023-05-16T01:32:21;48.73;;;29.30;;
15281;SDS011;7742;44.320;19.820;2023-05-16T01:34:49;85.53;;;31.60;;
15281;SDS011;7742;44.320;19.820;2023-05-16T01:37:18;187.93;;;34.30;;
15281;SDS011;7742;44.320;19.820;2023-05-16T01:39:46;113.53;;;32.23;;
15281;SDS011;7742;44.320;19.820;2023-05-16T01:42:16;97.47;;;32.30;;
15281;SDS011;7742;44.320;19.820;2023-05-16T01:44:49;115.03;;;34.27;;
15281;SDS011;7742;44.320;19.820;2023-05-16T01:47:16;42.70;;;29.90;;
15281;SDS011;7742;44.320;19.820;2023-05-16T01:49:48;80.00;;;31.90;;
15281;SDS011;7742;44.320;19.820;2023-05-16T01:52:18;92.20;;;33.33;;
15281;SDS011;7742;44.320;19.820;2023-05-16T01:54:46;47.47;;;30.53;;
15281;SDS011;7742;44.320;19.820;2023-05-16T01:57:14;106.57;;;31.80;;
15281;SDS011;7742;44.320;19.820;2023-05-16T01:59:42;45.10;;;30.87;;
15281;SDS011;7742;44.320;19.820;2023-05-16T02:02:11;59.70;;;30.40;;
15281;SDS011;7742;44.320;19.820;2023-05-16T02:04:39;152.87;;;36.03;;
15281;SDS011;7742;44.320;19.820;2023-05-16T02:07:05;109.17;;;31.30;;
15281;SDS011;7742;44.320;19.820;2023-05-16T02:09:32;86.17;;;31.00;;
15281;SDS011;7742;44.320;19.820;2023-05-16T02:11:59;76.70;;;32.80;;
15281;SDS011;7742;44.320;19.820;2023-05-16T02:14:27;88.30;;;31.60;;
15281;SDS011;7742;44.320;19.820;2023-05-16T02:16:54;71.63;;;31.63;;
15281;SDS011;7742;44.320;19.820;2023-05-16T02:22:24;35.50;;;29.70;;
15281;SDS011;7742;44.320;19.820;2023-05-16T02:24:51;36.47;;;30.50;;
15281;SDS011;7742;44.320;19.820;2023-05-16T02:27:18;56.93;;;30.43;;
15281;SDS011;7742;44.320;19.820;2023-05-16T02:29:45;46.30;;;30.87;;
15281;SDS011;7742;44.320;19.820;2023-05-16T02:32:12;31.40;;;28.10;;
15281;SDS011;7742;44.320;19.820;2023-05-16T02:34:39;77.97;;;30.70;;
15281;SDS011;7742;44.320;19.820;2023-05-16T02:37:12;31.97;;;28.67;;
15281;SDS011;7742;44.320;19.820;2023-05-16T02:39:43;41.07;;;30.00;;
15281;SDS011;7742;44.320;19.820;2023-05-16T02:42:10;39.20;;;30.50;;
15281;SDS011;7742;44.320;19.820;2023-05-16T02:44:37;118.10;;;34.20;;
15281;SDS011;7742;44.320;19.820;2023-05-16T02:47:04;37.33;;;30.43;;
15281;SDS011;7742;44.320;19.820;2023-05-16T02:49:31;218.70;;;42.07;;
15281;SDS011;7742;44.320;19.820;2023-05-16T02:51:58;252.90;;;41.30;;
15281;SDS011;7742;44.320;19.820;2023-05-16T02:54:25;35.23;;;30.17;;
15281;SDS011;7742;44.320;19.820;2023-05-16T02:56:53;33.87;;;30.67;;
15281;SDS011;7742;44.320;19.820;2023-05-16T02:59:20;33.17;;;30.20;;
15281;SDS011;7742;44.320;19.820;2023-05-16T03:01:46;33.63;;;30.67;;
15281;SDS011;7742;44.320;19.820;2023-05-16T03:04:13;72.53;;;32.07;;
15281;SDS011;7742;44.320;19.820;2023-05-16T03:06:40;36.67;;;30.80;;
15281;SDS011;7742;44.320;19.820;2023-05-16T03:09:07;127.07;;;35.70;;
15281;SDS011;7742;44.320;19.820;2023-05-16T03:11:34;33.00;;;30.10;;
15281;SDS011;7742;44.320;19.820;2023-05-16T03:14:03;34.57;;;31.40;;
15281;SDS011;7742;44.320;19.820;2023-05-16T03:16:30;34.10;;;30.87;;
15281;SDS011;7742;44.320;19.820;2023-05-16T03:18:57;34.00;;;31.07;;
15281;SDS011;7742;44.320;19.820;2023-05-16T03:21:24;35.50;;;32.50;;
15281;SDS011;7742;44.320;19.820;2023-05-16T03:23:51;31.93;;;28.93;;
15281;SDS011;7742;44.320;19.820;2023-05-16T03:26:19;31.10;;;28.17;;
15281;SDS011;7742;44.320;19.820;2023-05-16T03:28:47;31.77;;;28.63;;
15281;SDS011;7742;44.320;19.820;2023-05-16T03:31:19;32.67;;;29.77;;
15281;SDS011;7742;44.320;19.820;2023-05-16T03:33:46;32.30;;;29.50;;
15281;SDS011;7742;44.320;19.820;2023-05-16T03:36:12;34.73;;;31.73;;
15281;SDS011;7742;44.320;19.820;2023-05-16T03:38:39;32.80;;;29.57;;
15281;SDS011;7742;44.320;19.820;2023-05-16T03:41:06;32.10;;;29.13;;
15281;SDS011;7742;44.320;19.820;2023-05-16T03:43:33;30.07;;;27.30;;
15281;SDS011;7742;44.320;19.820;2023-05-16T03:46:00;29.97;;;27.37;;
15281;SDS011;7742;44.320;19.820;2023-05-16T03:48:28;29.73;;;26.97;;
15281;SDS011;7742;44.320;19.820;2023-05-16T03:50:55;31.13;;;28.43;;
15281;SDS011;7742;44.320;19.820;2023-05-16T03:53:22;28.23;;;25.70;;
15281;SDS011;7742;44.320;19.820;2023-05-16T03:55:49;27.73;;;25.43;;
15281;SDS011;7742;44.320;19.820;2023-05-16T03:58:16;30.10;;;27.20;;
15281;SDS011;7742;44.320;19.820;2023-05-16T04:00:43;31.47;;;28.87;;
15281;SDS011;7742;44.320;19.820;2023-05-16T04:03:11;31.57;;;28.87;;
15281;SDS011;7742;44.320;19.820;2023-05-16T04:05:39;36.10;;;30.07;;
15281;SDS011;7742;44.320;19.820;2023-05-16T04:08:06;29.50;;;27.10;;
15281;SDS011;7742;44.320;19.820;2023-05-16T04:10:33;28.40;;;25.70;;
15281;SDS011;7742;44.320;19.820;2023-05-16T04:13:00;29.70;;;27.10;;
15281;SDS011;7742;44.320;19.820;2023-05-16T04:15:26;29.67;;;26.97;;
15281;SDS011;7742;44.320;19.820;2023-05-16T04:17:53;30.93;;;28.13;;
15281;SDS011;7742;44.320;19.820;2023-05-16T04:20:20;29.33;;;26.80;;
15281;SDS011;7742;44.320;19.820;2023-05-16T04:22:49;29.27;;;26.77;;
15281;SDS011;7742;44.320;19.820;2023-05-16T04:25:16;28.00;;;25.77;;
15281;SDS011;7742;44.320;19.820;2023-05-16T04:27:43;28.60;;;26.20;;
15281;SDS011;7742;44.320;19.820;2023-05-16T04:30:10;31.70;;;29.10;;
15281;SDS011;7742;44.320;19.820;2023-05-16T04:32:38;31.27;;;28.77;;
15281;SDS011;7742;44.320;19.820;2023-05-16T04:35:05;32.17;;;29.27;;
15281;SDS011;7742;44.320;19.820;2023-05-16T04:37:34;45.40;;;28.83;;
15281;SDS011;7742;44.320;19.820;2023-05-16T04:40:03;32.33;;;28.53;;
15281;SDS011;7742;44.320;19.820;2023-05-16T04:42:31;30.50;;;27.93;;
15281;SDS011;7742;44.320;19.820;2023-05-16T04:44:59;30.97;;;28.57;;
15281;SDS011;7742;44.320;19.820;2023-05-16T04:47:27;30.73;;;28.00;;
15281;SDS011;7742;44.320;19.820;2023-05-16T04:49:54;30.57;;;28.17;;
15281;SDS011;7742;44.320;19.820;2023-05-16T04:52:21;30.77;;;28.40;;
15281;SDS011;7742;44.320;19.820;2023-05-16T04:54:49;31.20;;;28.80;;
15281;SDS011;7742;44.320;19.820;2023-05-16T04:57:17;31.33;;;28.83;;
15281;SDS011;7742;44.320;19.820;2023-05-16T04:59:44;29.80;;;27.47;;
15281;SDS011;7742;44.320;19.820;2023-05-16T05:02:11;30.40;;;27.90;;
15281;SDS011;7742;44.320;19.820;2023-05-16T05:04:38;31.57;;;28.73;;
15281;SDS011;7742;44.320;19.820;2023-05-16T05:07:05;29.40;;;27.10;;
15281;SDS011;7742;44.320;19.820;2023-05-16T05:09:32;31.43;;;28.83;;
15281;SDS011;7742;44.320;19.820;2023-05-16T05:11:59;31.73;;;29.30;;
15281;SDS011;7742;44.320;19.820;2023-05-16T05:14:28;30.93;;;28.40;;
15281;SDS011;7742;44.320;19.820;2023-05-16T05:16:55;30.13;;;27.70;;
15281;SDS011;7742;44.320;19.820;2023-05-16T05:19:22;31.33;;;28.83;;
15281;SDS011;7742;44.320;19.820;2023-05-16T05:21:49;28.10;;;25.80;;
15281;SDS011;7742;44.320;19.820;2023-05-16T05:24:16;29.17;;;26.57;;
15281;SDS011;7742;44.320;19.820;2023-05-16T05:26:43;27.67;;;25.40;;
15281;SDS011;7742;44.320;19.820;2023-05-16T05:29:10;28.27;;;25.97;;
15281;SDS011;7742;44.320;19.820;2023-05-16T05:31:38;27.77;;;25.37;;
15281;SDS011;7742;44.320;19.820;2023-05-16T05:34:05;34.63;;;32.10;;
15281;SDS011;7742;44.320;19.820;2023-05-16T05:36:32;29.53;;;27.17;;
15281;SDS011;7742;44.320;19.820;2023-05-16T05:38:59;28.60;;;26.20;;
15281;SDS011;7742;44.320;19.820;2023-05-16T05:41:26;28.67;;;26.37;;
15281;SDS011;7742;44.320;19.820;2023-05-16T05:43:54;27.93;;;25.73;;
15281;SDS011;7742;44.320;19.820;2023-05-16T05:46:21;28.10;;;26.00;;
15281;SDS011;7742;44.320;19.820;2023-05-16T05:48:49;27.57;;;25.40;;
15281;SDS011;7742;44.320;19.820;2023-05-16T05:51:16;25.83;;;23.83;;
15281;SDS011;7742;44.320;19.820;2023-05-16T05:53:44;28.00;;;25.80;;
15281;SDS011;7742;44.320;19.820;2023-05-16T05:56:11;27.00;;;25.10;;
15281;SDS011;7742;44.320;19.820;2023-05-16T05:58:38;27.00;;;24.80;;
15281;SDS011;7742;44.320;19.820;2023-05-16T06:01:06;26.67;;;24.67;;
15281;SDS011;7742;44.320;19.820;2023-05-16T06:03:33;27.50;;;25.33;;
15281;SDS011;7742;44.320;19.820;2023-05-16T06:06:02;27.60;;;25.50;;
15281;SDS011;7742;44.320;19.820;2023-05-16T06:08:29;28.43;;;26.23;;
15281;SDS011;7742;44.320;19.820;2023-05-16T06:10:56;26.70;;;24.60;;
15281;SDS011;7742;44.320;19.820;2023-05-16T06:13:22;27.63;;;25.53;;
15281;SDS011;7742;44.320;19.820;2023-05-16T06:15:49;28.13;;;25.93;;
15281;SDS011;7742;44.320;19.820;2023-05-16T06:18:16;25.73;;;23.83;;
15281;SDS011;7742;44.320;19.820;2023-05-16T06:20:43;25.07;;;23.37;;
15281;SDS011;7742;44.320;19.820;2023-05-16T06:23:11;26.27;;;24.23;;
15281;SDS011;7742;44.320;19.820;2023-05-16T06:25:38;26.60;;;24.63;;
15281;SDS011;7742;44.320;19.820;2023-05-16T06:28:05;25.77;;;23.97;;
15281;SDS011;7742;44.320;19.820;2023-05-16T06:30:32;25.97;;;24.13;;
15281;SDS011;7742;44.320;19.820;2023-05-16T06:32:59;27.70;;;25.77;;
15281;SDS011;7742;44.320;19.820;2023-05-16T06:35:26;27.77;;;25.73;;
15281;SDS011;7742;44.320;19.820;2023-05-16T06:37:53;25.90;;;23.90;;
15281;SDS011;7742;44.320;19.820;2023-05-16T06:40:21;26.17;;;23.93;;
15281;SDS011;7742;44.320;19.820;2023-05-16T06:42:48;27.00;;;25.07;;
15281;SDS011;7742;44.320;19.820;2023-05-16T06:45:15;27.93;;;25.67;;
15281;SDS011;7742;44.320;19.820;2023-05-16T06:47:41;26.60;;;24.57;;
15281;SDS011;7742;44.320;19.820;2023-05-16T06:50:09;25.23;;;23.37;;
15281;SDS011;7742;44.320;19.820;2023-05-16T06:52:36;23.17;;;21.40;;
15281;SDS011;7742;44.320;19.820;2023-05-16T06:55:03;23.87;;;22.07;;
15281;SDS011;7742;44.320;19.820;2023-05-16T06:57:31;25.60;;;23.80;;
15281;SDS011;7742;44.320;19.820;2023-05-16T06:59:58;26.60;;;24.50;;
15281;SDS011;7742;44.320;19.820;2023-05-16T07:02:25;25.30;;;23.33;;
15281;SDS011;7742;44.320;19.820;2023-05-16T07:04:52;24.97;;;23.27;;
15281;SDS011;7742;44.320;19.820;2023-05-16T07:07:19;23.57;;;21.77;;
15281;SDS011;7742;44.320;19.820;2023-05-16T07:09:46;22.70;;;21.07;;
15281;SDS011;7742;44.320;19.820;2023-05-16T07:12:12;25.17;;;22.97;;
15281;SDS011;7742;44.320;19.820;2023-05-16T07:14:41;22.73;;;21.17;;
15281;SDS011;7742;44.320;19.820;2023-05-16T07:17:08;23.90;;;21.63;;
15281;SDS011;7742;44.320;19.820;2023-05-16T07:19:34;23.53;;;21.70;;
15281;SDS011;7742;44.320;19.820;2023-05-16T07:22:01;24.90;;;22.87;;
15281;SDS011;7742;44.320;19.820;2023-05-16T07:24:29;24.00;;;22.10;;
15281;SDS011;7742;44.320;19.820;2023-05-16T07:26:55;24.37;;;22.27;;
15281;SDS011;7742;44.320;19.820;2023-05-16T07:29:23;22.70;;;20.87;;
15281;SDS011;7742;44.320;19.820;2023-05-16T07:31:51;23.60;;;21.87;;
15281;SDS011;7742;44.320;19.820;2023-05-16T07:34:18;23.27;;;21.13;;
15281;SDS011;7742;44.320;19.820;2023-05-16T07:36:45;22.63;;;21.07;;
15281;SDS011;7742;44.320;19.820;2023-05-16T07:39:12;25.13;;;23.03;;
15281;SDS011;7742;44.320;19.820;2023-05-16T07:41:39;24.73;;;22.97;;
15281;SDS011;7742;44.320;19.820;2023-05-16T07:44:06;21.93;;;20.23;;
15281;SDS011;7742;44.320;19.820;2023-05-16T07:46:33;19.10;;;17.50;;
15281;SDS011;7742;44.320;19.820;2023-05-16T07:49:01;19.83;;;18.27;;
15281;SDS011;7742;44.320;19.820;2023-05-16T07:51:28;22.27;;;20.37;;
15281;SDS011;7742;44.320;19.820;2023-05-16T07:53:56;23.00;;;21.40;;
15281;SDS011;7742;44.320;19.820;2023-05-16T07:56:22;24.03;;;22.03;;
15281;SDS011;7742;44.320;19.820;2023-05-16T07:58:49;24.70;;;22.90;;
15281;SDS011;7742;44.320;19.820;2023-05-16T08:01:17;23.90;;;22.20;;
15281;SDS011;7742;44.320;19.820;2023-05-16T08:03:44;24.63;;;22.83;;
15281;SDS011;7742;44.320;19.820;2023-05-16T08:06:13;24.77;;;22.97;;
15281;SDS011;7742;44.320;19.820;2023-05-16T08:08:40;22.27;;;20.87;;
15281;SDS011;7742;44.320;19.820;2023-05-16T08:11:07;24.47;;;22.57;;
15281;SDS011;7742;44.320;19.820;2023-05-16T08:13:34;22.97;;;21.23;;
15281;SDS011;7742;44.320;19.820;2023-05-16T08:16:00;23.97;;;22.10;;
15281;SDS011;7742;44.320;19.820;2023-05-16T08:18:27;24.07;;;22.37;;
15281;SDS011;7742;44.320;19.820;2023-05-16T08:20:54;23.53;;;21.77;;
15281;SDS011;7742;44.320;19.820;2023-05-16T08:23:23;24.03;;;22.40;;
15281;SDS011;7742;44.320;19.820;2023-05-16T08:25:50;24.17;;;22.47;;
15281;SDS011;7742;44.320;19.820;2023-05-16T08:28:18;23.93;;;22.03;;
15281;SDS011;7742;44.320;19.820;2023-05-16T08:30:47;22.90;;;21.37;;
15281;SDS011;7742;44.320;19.820;2023-05-16T08:33:14;22.03;;;20.53;;
15281;SDS011;7742;44.320;19.820;2023-05-16T08:35:41;22.67;;;21.07;;
15281;SDS011;7742;44.320;19.820;2023-05-16T08:38:08;23.13;;;21.17;;
15281;SDS011;7742;44.320;19.820;2023-05-16T08:40:36;20.70;;;19.00;;
15281;SDS011;7742;44.320;19.820;2023-05-16T08:43:03;19.90;;;18.50;;
15281;SDS011;7742;44.320;19.820;2023-05-16T08:45:31;20.93;;;19.13;;
15281;SDS011;7742;44.320;19.820;2023-05-16T08:47:59;20.07;;;18.60;;
15281;SDS011;7742;44.320;19.820;2023-05-16T08:50:26;19.77;;;18.17;;
15281;SDS011;7742;44.320;19.820;2023-05-16T08:52:56;19.10;;;17.60;;
15281;SDS011;7742;44.320;19.820;2023-05-16T08:55:23;19.53;;;18.03;;
15281;SDS011;7742;44.320;19.820;2023-05-16T08:57:53;19.03;;;17.63;;
15281;SDS011;7742;44.320;19.820;2023-05-16T09:00:22;20.27;;;18.47;;
15281;SDS011;7742;44.320;19.820;2023-05-16T09:02:49;19.90;;;18.23;;
15281;SDS011;7742;44.320;19.820;2023-05-16T09:05:16;20.63;;;19.13;;
15281;SDS011;7742;44.320;19.820;2023-05-16T09:07:44;20.10;;;18.70;;
15281;SDS011;7742;44.320;19.820;2023-05-16T09:10:11;20.90;;;19.17;;
15281;SDS011;7742;44.320;19.820;2023-05-16T09:12:38;19.13;;;17.80;;
15281;SDS011;7742;44.320;19.820;2023-05-16T09:15:08;19.67;;;18.20;;
15281;SDS011;7742;44.320;19.820;2023-05-16T09:17:35;19.67;;;18.07;;
15281;SDS011;7742;44.320;19.820;2023-05-16T09:20:09;19.07;;;17.73;;
15281;SDS011;7742;44.320;19.820;2023-05-16T09:22:36;19.73;;;18.40;;
15281;SDS011;7742;44.320;19.820;2023-05-16T09:25:06;19.67;;;18.13;;
15281;SDS011;7742;44.320;19.820;2023-05-16T09:27:34;19.23;;;17.73;;
15281;SDS011;7742;44.320;19.820;2023-05-16T09:30:00;19.33;;;17.90;;
15281;SDS011;7742;44.320;19.820;2023-05-16T09:32:30;18.90;;;17.60;;
15281;SDS011;7742;44.320;19.820;2023-05-16T09:34:56;19.33;;;18.10;;
15281;SDS011;7742;44.320;19.820;2023-05-16T09:37:24;20.60;;;19.10;;
15281;SDS011;7742;44.320;19.820;2023-05-16T09:39:51;19.47;;;18.00;;
15281;SDS011;7742;44.320;19.820;2023-05-16T09:42:19;18.93;;;17.63;;
15281;SDS011;7742;44.320;19.820;2023-05-16T09:44:47;19.27;;;17.80;;
15281;SDS011;7742;44.320;19.820;2023-05-16T09:47:14;20.20;;;18.07;;
15281;SDS011;7742;44.320;19.820;2023-05-16T09:49:43;19.57;;;18.10;;
15281;SDS011;7742;44.320;19.820;2023-05-16T09:52:09;19.13;;;17.63;;
15281;SDS011;7742;44.320;19.820;2023-05-16T09:54:36;19.17;;;17.67;;
15281;SDS011;7742;44.320;19.820;2023-05-16T09:57:03;20.30;;;18.90;;
15281;SDS011;7742;44.320;19.820;2023-05-16T09:59:30;20.53;;;18.70;;
15281;SDS011;7742;44.320;19.820;2023-05-16T10:02:00;19.60;;;18.00;;
15281;SDS011;7742;44.320;19.820;2023-05-16T10:04:28;19.87;;;17.87;;
15281;SDS011;7742;44.320;19.820;2023-05-16T10:06:57;18.87;;;17.67;;
15281;SDS011;7742;44.320;19.820;2023-05-16T10:09:26;19.00;;;17.60;;
15281;SDS011;7742;44.320;19.820;2023-05-16T10:11:53;19.60;;;18.07;;
15281;SDS011;7742;44.320;19.820;2023-05-16T10:14:21;19.17;;;17.87;;
15281;SDS011;7742;44.320;19.820;2023-05-16T10:16:48;19.30;;;17.90;;
15281;SDS011;7742;44.320;19.820;2023-05-16T10:19:16;19.40;;;17.90;;
15281;SDS011;7742;44.320;19.820;2023-05-16T10:21:45;19.37;;;18.07;;
15281;SDS011;7742;44.320;19.820;2023-05-16T10:24:16;19.53;;;18.00;;
15281;SDS011;7742;44.320;19.820;2023-05-16T10:26:43;19.43;;;18.03;;
15281;SDS011;7742;44.320;19.820;2023-05-16T10:29:10;19.93;;;18.03;;
15281;SDS011;7742;44.320;19.820;2023-05-16T10:31:37;20.63;;;19.13;;
15281;SDS011;7742;44.320;19.820;2023-05-16T10:34:04;21.37;;;19.77;;
15281;SDS011;7742;44.320;19.820;2023-05-16T10:36:31;21.10;;;19.60;;
15281;SDS011;7742;44.320;19.820;2023-05-16T10:38:58;20.00;;;18.37;;
15281;SDS011;7742;44.320;19.820;2023-05-16T10:41:27;19.23;;;17.73;;
15281;SDS011;7742;44.320;19.820;2023-05-16T10:43:57;20.17;;;18.70;;
15281;SDS011;7742;44.320;19.820;2023-05-16T10:46:25;19.93;;;18.50;;
15281;SDS011;7742;44.320;19.820;2023-05-16T10:48:53;19.50;;;17.90;;
15281;SDS011;7742;44.320;19.820;2023-05-16T10:51:33;19.87;;;18.33;;
15281;SDS011;7742;44.320;19.820;2023-05-16T10:54:03;19.27;;;17.70;;
15281;SDS011;7742;44.320;19.820;2023-05-16T10:56:32;18.27;;;16.97;;
15281;SDS011;7742;44.320;19.820;2023-05-16T10:58:59;19.80;;;18.30;;
15281;SDS011;7742;44.320;19.820;2023-05-16T11:01:26;19.63;;;17.97;;
15281;SDS011;7742;44.320;19.820;2023-05-16T11:04:06;18.73;;;17.20;;
15281;SDS011;7742;44.320;19.820;2023-05-16T11:06:33;18.43;;;16.83;;
15281;SDS011;7742;44.320;19.820;2023-05-16T11:09:03;17.87;;;16.47;;
15281;SDS011;7742;44.320;19.820;2023-05-16T11:11:42;17.97;;;16.10;;
15281;SDS011;7742;44.320;19.820;2023-05-16T11:14:16;18.57;;;16.83;;
15281;SDS011;7742;44.320;19.820;2023-05-16T11:16:47;17.73;;;16.07;;
15281;SDS011;7742;44.320;19.820;2023-05-16T11:19:18;17.47;;;16.07;;
15281;SDS011;7742;44.320;19.820;2023-05-16T11:24:47;18.10;;;16.70;;
15281;SDS011;7742;44.320;19.820;2023-05-16T11:27:18;19.07;;;17.47;;
15281;SDS011;7742;44.320;19.820;2023-05-16T11:29:46;31.57;;;28.23;;
15281;SDS011;7742;44.320;19.820;2023-05-16T11:32:13;22.83;;;20.57;;
15281;SDS011;7742;44.320;19.820;2023-05-16T11:34:44;21.07;;;19.27;;
15281;SDS011;7742;44.320;19.820;2023-05-16T11:37:12;20.40;;;18.53;;
15281;SDS011;7742;44.320;19.820;2023-05-16T11:39:39;16.77;;;15.10;;
15281;SDS011;7742;44.320;19.820;2023-05-16T11:42:08;17.70;;;16.10;;
15281;SDS011;7742;44.320;19.820;2023-05-16T11:44:37;18.70;;;17.17;;
15281;SDS011;7742;44.320;19.820;2023-05-16T11:47:04;18.83;;;17.10;;
15281;SDS011;7742;44.320;19.820;2023-05-16T11:49:31;18.87;;;17.37;;
15281;SDS011;7742;44.320;19.820;2023-05-16T11:52:00;18.20;;;16.90;;
15281;SDS011;7742;44.320;19.820;2023-05-16T11:54:27;19.30;;;17.50;;
15281;SDS011;7742;44.320;19.820;2023-05-16T11:56:54;20.07;;;18.67;;
15281;SDS011;7742;44.320;19.820;2023-05-16T11:59:21;18.83;;;17.63;;
15281;SDS011;7742;44.320;19.820;2023-05-16T12:01:49;18.83;;;17.20;;
15281;SDS011;7742;44.320;19.820;2023-05-16T12:04:16;18.80;;;17.40;;
15281;SDS011;7742;44.320;19.820;2023-05-16T12:06:56;19.57;;;18.17;;
15281;SDS011;7742;44.320;19.820;2023-05-16T12:09:23;18.30;;;16.90;;
15281;SDS011;7742;44.320;19.820;2023-05-16T12:11:49;17.43;;;15.83;;
15281;SDS011;7742;44.320;19.820;2023-05-16T12:14:17;16.73;;;15.60;;
15281;SDS011;7742;44.320;19.820;2023-05-16T12:16:44;17.37;;;15.43;;
15281;SDS011;7742;44.320;19.820;2023-05-16T12:19:14;17.57;;;16.17;;
15281;SDS011;7742;44.320;19.820;2023-05-16T12:21:41;17.80;;;16.60;;
15281;SDS011;7742;44.320;19.820;2023-05-16T12:24:09;18.80;;;17.20;;
15281;SDS011;7742;44.320;19.820;2023-05-16T12:26:38;17.53;;;16.20;;
15281;SDS011;7742;44.320;19.820;2023-05-16T12:29:05;17.80;;;16.33;;
15281;SDS011;7742;44.320;19.820;2023-05-16T12:31:34;17.33;;;15.73;;
15281;SDS011;7742;44.320;19.820;2023-05-16T12:34:01;16.63;;;15.17;;
15281;SDS011;7742;44.320;19.820;2023-05-16T12:36:31;16.93;;;15.43;;
15281;SDS011;7742;44.320;19.820;2023-05-16T12:38:59;16.13;;;14.70;;
15281;SDS011;7742;44.320;19.820;2023-05-16T12:41:26;17.33;;;16.00;;
15281;SDS011;7742;44.320;19.820;2023-05-16T12:44:05;16.67;;;15.30;;
15281;SDS011;7742;44.320;19.820;2023-05-16T12:46:31;17.63;;;16.20;;
15281;SDS011;7742;44.320;19.820;2023-05-16T12:49:00;17.40;;;15.77;;
15281;SDS011;7742;44.320;19.820;2023-05-16T12:51:27;16.93;;;15.63;;
15281;SDS011;7742;44.320;19.820;2023-05-16T12:54:05;17.33;;;16.10;;
15281;SDS011;7742;44.320;19.820;2023-05-16T12:56:33;16.17;;;15.03;;
15281;SDS011;7742;44.320;19.820;2023-05-16T12:59:00;16.70;;;15.30;;
15281;SDS011;7742;44.320;19.820;2023-05-16T13:01:26;18.20;;;16.90;;
15281;SDS011;7742;44.320;19.820;2023-05-16T13:03:53;17.73;;;16.43;;
15281;SDS011;7742;44.320;19.820;2023-05-16T13:06:20;17.75;;;16.25;;
15281;SDS011;7742;44.320;19.820;2023-05-16T13:08:47;16.43;;;15.13;;
15281;SDS011;7742;44.320;19.820;2023-05-16T13:11:16;15.40;;;14.30;;
15281;SDS011;7742;44.320;19.820;2023-05-16T13:13:43;16.70;;;15.37;;
15281;SDS011;7742;44.320;19.820;2023-05-16T13:16:10;16.83;;;15.20;;
15281;SDS011;7742;44.320;19.820;2023-05-16T13:18:36;16.27;;;15.07;;
15281;SDS011;7742;44.320;19.820;2023-05-16T13:21:04;16.93;;;15.63;;
15281;SDS011;7742;44.320;19.820;2023-05-16T13:23:30;18.27;;;16.97;;
15281;SDS011;7742;44.320;19.820;2023-05-16T13:25:57;20.00;;;17.90;;
15281;SDS011;7742;44.320;19.820;2023-05-16T13:28:26;20.03;;;18.17;;
15281;SDS011;7742;44.320;19.820;2023-05-16T13:30:53;19.30;;;17.80;;
15281;SDS011;7742;44.320;19.820;2023-05-16T13:33:19;19.90;;;18.10;;
15281;SDS011;7742;44.320;19.820;2023-05-16T13:35:47;19.03;;;17.63;;
15281;SDS011;7742;44.320;19.820;2023-05-16T13:38:14;21.27;;;19.47;;
15281;SDS011;7742;44.320;19.820;2023-05-16T13:40:40;21.60;;;20.00;;
15281;SDS011;7742;44.320;19.820;2023-05-16T13:43:07;21.90;;;20.10;;
15281;SDS011;7742;44.320;19.820;2023-05-16T13:45:36;21.60;;;20.03;;
15281;SDS011;7742;44.320;19.820;2023-05-16T13:48:03;22.47;;;20.97;;
15281;SDS011;7742;44.320;19.820;2023-05-16T13:50:31;22.77;;;20.77;;
15281;SDS011;7742;44.320;19.820;2023-05-16T13:52:58;23.43;;;21.60;;
15281;SDS011;7742;44.320;19.820;2023-05-16T13:55:25;20.23;;;18.60;;
15281;SDS011;7742;44.320;19.820;2023-05-16T13:57:52;20.83;;;18.97;;
15281;SDS011;7742;44.320;19.820;2023-05-16T14:00:19;20.07;;;18.37;;
15281;SDS011;7742;44.320;19.820;2023-05-16T14:02:47;20.13;;;18.50;;
15281;SDS011;7742;44.320;19.820;2023-05-16T14:05:14;19.83;;;18.43;;
15281;SDS011;7742;44.320;19.820;2023-05-16T14:07:41;20.43;;;18.83;;
15281;SDS011;7742;44.320;19.820;2023-05-16T14:10:08;20.03;;;18.30;;
15281;SDS011;7742;44.320;19.820;2023-05-16T14:12:35;20.37;;;18.80;;
15281;SDS011;7742;44.320;19.820;2023-05-16T14:15:02;21.17;;;19.40;;
15281;SDS011;7742;44.320;19.820;2023-05-16T14:17:29;19.00;;;17.20;;
15281;SDS011;7742;44.320;19.820;2023-05-16T14:19:58;19.33;;;17.70;;
15281;SDS011;7742;44.320;19.820;2023-05-16T14:22:25;19.83;;;18.13;;
15281;SDS011;7742;44.320;19.820;2023-05-16T14:24:52;21.33;;;19.53;;
15281;SDS011;7742;44.320;19.820;2023-05-16T14:27:19;20.47;;;18.87;;
15281;SDS011;7742;44.320;19.820;2023-05-16T14:29:46;21.37;;;19.63;;
15281;SDS011;7742;44.320;19.820;2023-05-16T14:32:13;20.10;;;18.80;;
15281;SDS011;7742;44.320;19.820;2023-05-16T14:34:40;19.20;;;17.90;;
15281;SDS011;7742;44.320;19.820;2023-05-16T14:37:08;21.07;;;19.30;;